sensor_id;sensor_type;location;lat;lon;timestamp;P1;durP1;ratioP1;P2;durP2;ratioP2
66487;SDS011;53304;54.550;18.526;2023-09-19T00:01:32;4.80;;;1.98;;
66487;SDS011;53304;54.550;18.526;2023-09-19T00:03:58;4.80;;;2.13;;
66487;SDS011;53304;54.550;18.526;2023-09-19T00:06:28;4.57;;;2.30;;
66487;SDS011;53304;54.550;18.526;2023-09-19T00:08:58;4.30;;;1.77;;
66487;SDS011;53304;54.550;18.526;2023-09-19T00:11:25;4.20;;;1.98;;
66487;SDS011;53304;54.550;18.526;2023-09-19T00:13:54;5.20;;;2.00;;
66487;SDS011;53304;54.550;18.526;2023-09-19T00:16:19;3.53;;;2.00;;
66487;SDS011;53304;54.550;18.526;2023-09-19T00:18:45;3.90;;;2.13;;
66487;SDS011;53304;54.550;18.526;2023-09-19T00:21:11;3.47;;;1.90;;
66487;SDS011;53304;54.550;18.526;2023-09-19T00:23:36;3.22;;;1.75;;
66487;SDS011;53304;54.550;18.526;2023-09-19T00:26:04;4.00;;;1.98;;
66487;SDS011;53304;54.550;18.526;2023-09-19T00:28:32;3.80;;;2.22;;
66487;SDS011;53304;54.550;18.526;2023-09-19T00:31:02;3.08;;;1.60;;
66487;SDS011;53304;54.550;18.526;2023-09-19T00:33:28;3.25;;;1.90;;
66487;SDS011;53304;54.550;18.526;2023-09-19T00:35:59;2.92;;;1.90;;
66487;SDS011;53304;54.550;18.526;2023-09-19T00:38:24;3.55;;;1.80;;
66487;SDS011;53304;54.550;18.526;2023-09-19T00:40:52;2.90;;;1.70;;
66487;SDS011;53304;54.550;18.526;2023-09-19T00:43:22;2.20;;;1.50;;
66487;SDS011;53304;54.550;18.526;2023-09-19T00:45:50;2.72;;;1.50;;
66487;SDS011;53304;54.550;18.526;2023-09-19T00:48:16;2.40;;;1.50;;
66487;SDS011;53304;54.550;18.526;2023-09-19T00:50:42;2.63;;;1.50;;
66487;SDS011;53304;54.550;18.526;2023-09-19T00:53:12;4.85;;;1.63;;
66487;SDS011;53304;54.550;18.526;2023-09-19T00:55:39;3.58;;;1.85;;
66487;SDS011;53304;54.550;18.526;2023-09-19T00:58:09;3.60;;;1.65;;
66487;SDS011;53304;54.550;18.526;2023-09-19T01:03:02;3.10;;;1.60;;
66487;SDS011;53304;54.550;18.526;2023-09-19T01:05:28;2.90;;;1.52;;
66487;SDS011;53304;54.550;18.526;2023-09-19T01:07:54;2.83;;;1.35;;
66487;SDS011;53304;54.550;18.526;2023-09-19T01:10:24;3.53;;;1.60;;
66487;SDS011;53304;54.550;18.526;2023-09-19T01:13:13;3.83;;;1.83;;
66487;SDS011;53304;54.550;18.526;2023-09-19T01:32:09;3.33;;;1.73;;
66487;SDS011;53304;54.550;18.526;2023-09-19T01:34:48;3.15;;;1.67;;
66487;SDS011;53304;54.550;18.526;2023-09-19T01:37:19;2.33;;;1.55;;
66487;SDS011;53304;54.550;18.526;2023-09-19T01:39:58;2.45;;;1.55;;
66487;SDS011;53304;54.550;18.526;2023-09-19T01:47:55;3.15;;;1.60;;
66487;SDS011;53304;54.550;18.526;2023-09-19T01:53:06;2.30;;;1.40;;
66487;SDS011;53304;54.550;18.526;2023-09-19T01:55:41;2.60;;;1.30;;
66487;SDS011;53304;54.550;18.526;2023-09-19T01:58:24;3.10;;;1.20;;
66487;SDS011;53304;54.550;18.526;2023-09-19T02:00:59;2.15;;;1.30;;
66487;SDS011;53304;54.550;18.526;2023-09-19T02:03:25;2.58;;;1.35;;
66487;SDS011;53304;54.550;18.526;2023-09-19T02:05:54;2.35;;;1.35;;
66487;SDS011;53304;54.550;18.526;2023-09-19T02:08:22;1.83;;;1.20;;
66487;SDS011;53304;54.550;18.526;2023-09-19T02:10:51;2.17;;;1.27;;
66487;SDS011;53304;54.550;18.526;2023-09-19T02:13:18;3.45;;;1.60;;
66487;SDS011;53304;54.550;18.526;2023-09-19T02:15:47;2.08;;;1.40;;
66487;SDS011;53304;54.550;18.526;2023-09-19T02:18:15;2.50;;;1.40;;
66487;SDS011;53304;54.550;18.526;2023-09-19T02:20:40;2.67;;;1.27;;
66487;SDS011;53304;54.550;18.526;2023-09-19T02:23:11;2.97;;;1.63;;
66487;SDS011;53304;54.550;18.526;2023-09-19T02:25:37;2.97;;;1.50;;
66487;SDS011;53304;54.550;18.526;2023-09-19T02:28:05;2.97;;;1.75;;
66487;SDS011;53304;54.550;18.526;2023-09-19T02:30:34;2.50;;;1.17;;
66487;SDS011;53304;54.550;18.526;2023-09-19T02:32:59;2.85;;;1.40;;
66487;SDS011;53304;54.550;18.526;2023-09-19T02:35:28;2.75;;;1.45;;
66487;SDS011;53304;54.550;18.526;2023-09-19T02:38:01;2.60;;;1.40;;
66487;SDS011;53304;54.550;18.526;2023-09-19T02:40:28;3.10;;;1.50;;
66487;SDS011;53304;54.550;18.526;2023-09-19T02:42:54;2.90;;;1.60;;
66487;SDS011;53304;54.550;18.526;2023-09-19T02:45:24;3.40;;;1.50;;
66487;SDS011;53304;54.550;18.526;2023-09-19T02:47:50;3.10;;;1.70;;
66487;SDS011;53304;54.550;18.526;2023-09-19T02:50:16;4.10;;;1.70;;
66487;SDS011;53304;54.550;18.526;2023-09-19T02:52:46;3.38;;;1.60;;
66487;SDS011;53304;54.550;18.526;2023-09-19T02:55:14;3.25;;;1.40;;
66487;SDS011;53304;54.550;18.526;2023-09-19T02:57:52;3.60;;;1.90;;
66487;SDS011;53304;54.550;18.526;2023-09-19T03:00:20;4.32;;;2.13;;
66487;SDS011;53304;54.550;18.526;2023-09-19T03:05:16;2.33;;;1.40;;
66487;SDS011;53304;54.550;18.526;2023-09-19T03:07:48;3.15;;;1.50;;
66487;SDS011;53304;54.550;18.526;2023-09-19T03:10:18;3.53;;;1.88;;
66487;SDS011;53304;54.550;18.526;2023-09-19T03:12:44;3.20;;;1.83;;
66487;SDS011;53304;54.550;18.526;2023-09-19T03:15:11;4.15;;;1.70;;
66487;SDS011;53304;54.550;18.526;2023-09-19T03:17:40;3.05;;;1.60;;
66487;SDS011;53304;54.550;18.526;2023-09-19T03:20:08;3.28;;;1.60;;
66487;SDS011;53304;54.550;18.526;2023-09-19T03:22:38;2.47;;;1.48;;
66487;SDS011;53304;54.550;18.526;2023-09-19T03:25:05;3.25;;;1.80;;
66487;SDS011;53304;54.550;18.526;2023-09-19T03:27:36;3.05;;;1.50;;
66487;SDS011;53304;54.550;18.526;2023-09-19T03:30:07;3.60;;;1.98;;
66487;SDS011;53304;54.550;18.526;2023-09-19T03:32:50;2.67;;;1.48;;
66487;SDS011;53304;54.550;18.526;2023-09-19T03:35:16;2.58;;;1.48;;
66487;SDS011;53304;54.550;18.526;2023-09-19T03:37:44;2.03;;;1.27;;
66487;SDS011;53304;54.550;18.526;2023-09-19T03:40:12;3.35;;;1.50;;
66487;SDS011;53304;54.550;18.526;2023-09-19T03:42:41;3.05;;;1.55;;
66487;SDS011;53304;54.550;18.526;2023-09-19T03:45:09;3.27;;;1.47;;
66487;SDS011;53304;54.550;18.526;2023-09-19T03:50:09;2.15;;;1.50;;
66487;SDS011;53304;54.550;18.526;2023-09-19T03:52:40;2.53;;;1.25;;
66487;SDS011;53304;54.550;18.526;2023-09-19T03:55:06;2.05;;;1.13;;
66487;SDS011;53304;54.550;18.526;2023-09-19T03:57:31;2.90;;;1.50;;
66487;SDS011;53304;54.550;18.526;2023-09-19T03:59:57;2.17;;;1.27;;
66487;SDS011;53304;54.550;18.526;2023-09-19T04:02:22;2.00;;;1.00;;
66487;SDS011;53304;54.550;18.526;2023-09-19T04:04:49;2.20;;;1.30;;
66487;SDS011;53304;54.550;18.526;2023-09-19T04:07:19;1.80;;;1.08;;
66487;SDS011;53304;54.550;18.526;2023-09-19T04:09:50;2.38;;;1.02;;
66487;SDS011;53304;54.550;18.526;2023-09-19T04:12:18;1.92;;;1.40;;
66487;SDS011;53304;54.550;18.526;2023-09-19T04:14:47;2.85;;;1.20;;
66487;SDS011;53304;54.550;18.526;2023-09-19T04:17:13;2.53;;;1.55;;
66487;SDS011;53304;54.550;18.526;2023-09-19T04:19:38;1.40;;;1.00;;
66487;SDS011;53304;54.550;18.526;2023-09-19T04:22:06;2.75;;;1.20;;
66487;SDS011;53304;54.550;18.526;2023-09-19T04:24:34;1.42;;;0.90;;
66487;SDS011;53304;54.550;18.526;2023-09-19T04:27:00;1.48;;;0.95;;
66487;SDS011;53304;54.550;18.526;2023-09-19T04:29:25;1.13;;;0.75;;
66487;SDS011;53304;54.550;18.526;2023-09-19T04:31:54;2.53;;;1.10;;
66487;SDS011;53304;54.550;18.526;2023-09-19T04:34:21;1.35;;;0.90;;
66487;SDS011;53304;54.550;18.526;2023-09-19T04:36:47;3.85;;;0.90;;
66487;SDS011;53304;54.550;18.526;2023-09-19T04:39:12;2.08;;;1.00;;
66487;SDS011;53304;54.550;18.526;2023-09-19T04:41:38;1.00;;;0.70;;
66487;SDS011;53304;54.550;18.526;2023-09-19T04:44:06;1.75;;;0.90;;
66487;SDS011;53304;54.550;18.526;2023-09-19T04:46:35;2.15;;;0.80;;
66487;SDS011;53304;54.550;18.526;2023-09-19T04:49:03;0.82;;;0.57;;
66487;SDS011;53304;54.550;18.526;2023-09-19T04:51:28;0.93;;;0.60;;
66487;SDS011;53304;54.550;18.526;2023-09-19T04:53:59;1.30;;;0.70;;
66487;SDS011;53304;54.550;18.526;2023-09-19T04:56:26;1.17;;;0.75;;
66487;SDS011;53304;54.550;18.526;2023-09-19T04:58:58;1.10;;;0.80;;
66487;SDS011;53304;54.550;18.526;2023-09-19T05:01:26;1.23;;;0.70;;
66487;SDS011;53304;54.550;18.526;2023-09-19T05:03:52;0.77;;;0.77;;
66487;SDS011;53304;54.550;18.526;2023-09-19T05:06:21;1.45;;;0.88;;
66487;SDS011;53304;54.550;18.526;2023-09-19T05:08:49;1.42;;;0.60;;
66487;SDS011;53304;54.550;18.526;2023-09-19T05:11:21;0.85;;;0.60;;
66487;SDS011;53304;54.550;18.526;2023-09-19T05:13:49;0.85;;;0.80;;
66487;SDS011;53304;54.550;18.526;2023-09-19T05:16:19;1.73;;;0.70;;
66487;SDS011;53304;54.550;18.526;2023-09-19T05:18:44;1.15;;;0.40;;
66487;SDS011;53304;54.550;18.526;2023-09-19T05:21:12;1.20;;;0.80;;
66487;SDS011;53304;54.550;18.526;2023-09-19T05:23:40;1.25;;;0.80;;
66487;SDS011;53304;54.550;18.526;2023-09-19T05:26:08;1.27;;;0.73;;
66487;SDS011;53304;54.550;18.526;2023-09-19T05:28:38;1.05;;;0.75;;
66487;SDS011;53304;54.550;18.526;2023-09-19T05:31:04;1.98;;;1.13;;
66487;SDS011;53304;54.550;18.526;2023-09-19T05:33:29;1.67;;;0.47;;
66487;SDS011;53304;54.550;18.526;2023-09-19T05:36:00;1.23;;;0.52;;
66487;SDS011;53304;54.550;18.526;2023-09-19T05:38:27;1.23;;;0.80;;
66487;SDS011;53304;54.550;18.526;2023-09-19T05:40:53;1.85;;;0.57;;
66487;SDS011;53304;54.550;18.526;2023-09-19T05:43:21;1.83;;;0.60;;
66487;SDS011;53304;54.550;18.526;2023-09-19T05:45:46;3.60;;;0.70;;
66487;SDS011;53304;54.550;18.526;2023-09-19T05:48:12;2.05;;;0.73;;
66487;SDS011;53304;54.550;18.526;2023-09-19T05:50:43;9.40;;;0.77;;
66487;SDS011;53304;54.550;18.526;2023-09-19T05:53:10;1.23;;;0.60;;
66487;SDS011;53304;54.550;18.526;2023-09-19T05:55:41;2.10;;;1.00;;
66487;SDS011;53304;54.550;18.526;2023-09-19T05:58:09;5.43;;;0.90;;
66487;SDS011;53304;54.550;18.526;2023-09-19T06:00:38;3.50;;;0.93;;
66487;SDS011;53304;54.550;18.526;2023-09-19T06:03:06;3.22;;;1.10;;
66487;SDS011;53304;54.550;18.526;2023-09-19T06:05:34;1.70;;;0.73;;
66487;SDS011;53304;54.550;18.526;2023-09-19T06:08:00;2.38;;;1.08;;
66487;SDS011;53304;54.550;18.526;2023-09-19T06:10:35;4.28;;;1.27;;
66487;SDS011;53304;54.550;18.526;2023-09-19T06:13:03;4.72;;;1.50;;
66487;SDS011;53304;54.550;18.526;2023-09-19T06:15:34;6.07;;;1.42;;
66487;SDS011;53304;54.550;18.526;2023-09-19T06:18:01;5.90;;;2.00;;
66487;SDS011;53304;54.550;18.526;2023-09-19T06:20:27;5.72;;;1.70;;
66487;SDS011;53304;54.550;18.526;2023-09-19T06:22:56;5.68;;;1.85;;
66487;SDS011;53304;54.550;18.526;2023-09-19T06:25:21;4.65;;;1.80;;
66487;SDS011;53304;54.550;18.526;2023-09-19T06:27:47;5.15;;;1.98;;
66487;SDS011;53304;54.550;18.526;2023-09-19T06:30:17;6.13;;;2.10;;
66487;SDS011;53304;54.550;18.526;2023-09-19T06:32:47;4.97;;;1.83;;
66487;SDS011;53304;54.550;18.526;2023-09-19T06:35:14;6.63;;;2.13;;
66487;SDS011;53304;54.550;18.526;2023-09-19T06:37:41;6.95;;;2.03;;
66487;SDS011;53304;54.550;18.526;2023-09-19T06:40:08;11.43;;;2.13;;
66487;SDS011;53304;54.550;18.526;2023-09-19T06:42:41;7.20;;;2.38;;
66487;SDS011;53304;54.550;18.526;2023-09-19T06:45:07;4.13;;;2.20;;
66487;SDS011;53304;54.550;18.526;2023-09-19T06:47:32;6.45;;;2.40;;
66487;SDS011;53304;54.550;18.526;2023-09-19T06:50:02;6.40;;;2.22;;
66487;SDS011;53304;54.550;18.526;2023-09-19T06:52:29;4.55;;;2.15;;
66487;SDS011;53304;54.550;18.526;2023-09-19T06:54:57;7.85;;;2.53;;
66487;SDS011;53304;54.550;18.526;2023-09-19T06:57:23;6.97;;;2.22;;
66487;SDS011;53304;54.550;18.526;2023-09-19T06:59:49;4.53;;;2.05;;
66487;SDS011;53304;54.550;18.526;2023-09-19T07:02:17;8.13;;;2.10;;
66487;SDS011;53304;54.550;18.526;2023-09-19T07:04:43;7.20;;;2.53;;
66487;SDS011;53304;54.550;18.526;2023-09-19T07:07:11;5.88;;;2.20;;
66487;SDS011;53304;54.550;18.526;2023-09-19T07:09:41;3.80;;;1.95;;
66487;SDS011;53304;54.550;18.526;2023-09-19T07:12:07;5.47;;;2.20;;
66487;SDS011;53304;54.550;18.526;2023-09-19T07:14:39;6.70;;;2.60;;
66487;SDS011;53304;54.550;18.526;2023-09-19T07:17:09;4.72;;;2.17;;
66487;SDS011;53304;54.550;18.526;2023-09-19T07:19:37;5.88;;;2.50;;
66487;SDS011;53304;54.550;18.526;2023-09-19T07:22:05;4.68;;;2.35;;
66487;SDS011;53304;54.550;18.526;2023-09-19T07:24:33;4.38;;;2.17;;
66487;SDS011;53304;54.550;18.526;2023-09-19T07:27:01;7.53;;;2.28;;
66487;SDS011;53304;54.550;18.526;2023-09-19T07:29:30;6.20;;;2.42;;
66487;SDS011;53304;54.550;18.526;2023-09-19T07:31:58;4.43;;;2.10;;
66487;SDS011;53304;54.550;18.526;2023-09-19T07:34:23;3.45;;;2.00;;
66487;SDS011;53304;54.550;18.526;2023-09-19T07:36:49;4.00;;;2.28;;
66487;SDS011;53304;54.550;18.526;2023-09-19T07:39:17;4.45;;;2.30;;
66487;SDS011;53304;54.550;18.526;2023-09-19T07:41:45;3.38;;;1.90;;
66487;SDS011;53304;54.550;18.526;2023-09-19T07:44:16;4.93;;;2.10;;
66487;SDS011;53304;54.550;18.526;2023-09-19T07:46:42;6.20;;;2.40;;
66487;SDS011;53304;54.550;18.526;2023-09-19T07:49:09;4.25;;;2.20;;
66487;SDS011;53304;54.550;18.526;2023-09-19T07:51:35;4.65;;;2.45;;
66487;SDS011;53304;54.550;18.526;2023-09-19T07:54:00;4.78;;;2.10;;
66487;SDS011;53304;54.550;18.526;2023-09-19T07:56:29;4.07;;;1.90;;
66487;SDS011;53304;54.550;18.526;2023-09-19T07:58:58;4.15;;;1.80;;
66487;SDS011;53304;54.550;18.526;2023-09-19T08:01:24;4.28;;;2.53;;
66487;SDS011;53304;54.550;18.526;2023-09-19T08:03:55;3.60;;;1.90;;
66487;SDS011;53304;54.550;18.526;2023-09-19T08:06:25;5.72;;;2.03;;
66487;SDS011;53304;54.550;18.526;2023-09-19T08:08:57;4.15;;;1.95;;
66487;SDS011;53304;54.550;18.526;2023-09-19T08:11:25;5.03;;;1.97;;
66487;SDS011;53304;54.550;18.526;2023-09-19T08:13:56;7.85;;;2.38;;
66487;SDS011;53304;54.550;18.526;2023-09-19T08:16:24;5.57;;;2.20;;
66487;SDS011;53304;54.550;18.526;2023-09-19T08:18:51;3.22;;;1.77;;
66487;SDS011;53304;54.550;18.526;2023-09-19T08:21:22;5.13;;;2.65;;
66487;SDS011;53304;54.550;18.526;2023-09-19T08:23:51;3.53;;;1.90;;
66487;SDS011;53304;54.550;18.526;2023-09-19T08:26:19;4.63;;;2.08;;
66487;SDS011;53304;54.550;18.526;2023-09-19T08:28:44;3.15;;;1.95;;
66487;SDS011;53304;54.550;18.526;2023-09-19T08:31:10;3.33;;;2.03;;
66487;SDS011;53304;54.550;18.526;2023-09-19T08:33:35;4.05;;;2.00;;
66487;SDS011;53304;54.550;18.526;2023-09-19T08:36:04;4.70;;;2.08;;
66487;SDS011;53304;54.550;18.526;2023-09-19T08:38:35;3.72;;;1.60;;
66487;SDS011;53304;54.550;18.526;2023-09-19T08:41:08;3.42;;;1.52;;
66487;SDS011;53304;54.550;18.526;2023-09-19T08:43:39;2.60;;;1.55;;
66487;SDS011;53304;54.550;18.526;2023-09-19T08:48:30;3.70;;;1.70;;
66487;SDS011;53304;54.550;18.526;2023-09-19T08:51:03;3.17;;;1.90;;
66487;SDS011;53304;54.550;18.526;2023-09-19T08:56:26;3.38;;;1.80;;
66487;SDS011;53304;54.550;18.526;2023-09-19T08:59:05;2.65;;;1.60;;
66487;SDS011;53304;54.550;18.526;2023-09-19T09:01:34;4.18;;;1.90;;
66487;SDS011;53304;54.550;18.526;2023-09-19T09:04:03;3.30;;;1.52;;
66487;SDS011;53304;54.550;18.526;2023-09-19T09:06:30;6.20;;;1.98;;
66487;SDS011;53304;54.550;18.526;2023-09-19T09:08:57;4.00;;;1.60;;
66487;SDS011;53304;54.550;18.526;2023-09-19T09:11:23;3.75;;;2.05;;
66487;SDS011;53304;54.550;18.526;2023-09-19T09:13:53;4.53;;;1.60;;
66487;SDS011;53304;54.550;18.526;2023-09-19T09:16:18;3.55;;;1.50;;
66487;SDS011;53304;54.550;18.526;2023-09-19T09:18:46;2.17;;;1.60;;
66487;SDS011;53304;54.550;18.526;2023-09-19T09:21:17;4.97;;;1.77;;
66487;SDS011;53304;54.550;18.526;2023-09-19T09:23:43;3.28;;;1.58;;
66487;SDS011;53304;54.550;18.526;2023-09-19T09:26:09;8.02;;;1.70;;
66487;SDS011;53304;54.550;18.526;2023-09-19T09:28:35;2.40;;;1.50;;
66487;SDS011;53304;54.550;18.526;2023-09-19T09:31:02;2.88;;;1.40;;
66487;SDS011;53304;54.550;18.526;2023-09-19T09:33:32;6.13;;;1.90;;
66487;SDS011;53304;54.550;18.526;2023-09-19T09:35:58;3.33;;;1.70;;
66487;SDS011;53304;54.550;18.526;2023-09-19T09:38:49;3.42;;;1.67;;
66487;SDS011;53304;54.550;18.526;2023-09-19T09:41:14;2.35;;;1.30;;
66487;SDS011;53304;54.550;18.526;2023-09-19T09:43:52;4.47;;;2.22;;
66487;SDS011;53304;54.550;18.526;2023-09-19T09:46:23;3.55;;;1.50;;
66487;SDS011;53304;54.550;18.526;2023-09-19T09:51:39;5.15;;;1.85;;
66487;SDS011;53304;54.550;18.526;2023-09-19T09:54:12;4.55;;;1.65;;
66487;SDS011;53304;54.550;18.526;2023-09-19T09:56:55;3.85;;;2.08;;
66487;SDS011;53304;54.550;18.526;2023-09-19T10:02:15;2.53;;;1.33;;
66487;SDS011;53304;54.550;18.526;2023-09-19T10:08:10;3.28;;;1.75;;
66487;SDS011;53304;54.550;18.526;2023-09-19T10:10:38;2.83;;;1.67;;
66487;SDS011;53304;54.550;18.526;2023-09-19T10:13:11;3.92;;;1.42;;
66487;SDS011;53304;54.550;18.526;2023-09-19T10:15:38;3.83;;;1.20;;
66487;SDS011;53304;54.550;18.526;2023-09-19T10:18:07;2.42;;;1.40;;
66487;SDS011;53304;54.550;18.526;2023-09-19T10:20:36;4.97;;;1.52;;
66487;SDS011;53304;54.550;18.526;2023-09-19T10:23:07;2.80;;;1.63;;
66487;SDS011;53304;54.550;18.526;2023-09-19T10:25:42;1.85;;;1.27;;
66487;SDS011;53304;54.550;18.526;2023-09-19T10:28:11;3.03;;;1.38;;
66487;SDS011;53304;54.550;18.526;2023-09-19T10:30:41;2.47;;;1.20;;
66487;SDS011;53304;54.550;18.526;2023-09-19T10:33:15;4.78;;;1.60;;
66487;SDS011;53304;54.550;18.526;2023-09-19T10:35:46;3.40;;;1.25;;
66487;SDS011;53304;54.550;18.526;2023-09-19T10:38:17;2.28;;;1.50;;
66487;SDS011;53304;54.550;18.526;2023-09-19T10:40:50;1.45;;;1.23;;
66487;SDS011;53304;54.550;18.526;2023-09-19T10:43:17;2.35;;;1.30;;
66487;SDS011;53304;54.550;18.526;2023-09-19T10:45:47;2.25;;;1.10;;
66487;SDS011;53304;54.550;18.526;2023-09-19T10:48:20;1.95;;;1.20;;
66487;SDS011;53304;54.550;18.526;2023-09-19T10:54:06;2.75;;;1.38;;
66487;SDS011;53304;54.550;18.526;2023-09-19T10:56:43;3.10;;;1.35;;
66487;SDS011;53304;54.550;18.526;2023-09-19T10:59:16;1.80;;;1.13;;
66487;SDS011;53304;54.550;18.526;2023-09-19T11:15:10;4.03;;;1.40;;
66487;SDS011;53304;54.550;18.526;2023-09-19T11:26:44;3.65;;;1.25;;
66487;SDS011;53304;54.550;18.526;2023-09-19T11:29:26;5.65;;;1.58;;
66487;SDS011;53304;54.550;18.526;2023-09-19T11:31:51;2.47;;;1.20;;
66487;SDS011;53304;54.550;18.526;2023-09-19T11:37:00;2.33;;;1.38;;
66487;SDS011;53304;54.550;18.526;2023-09-19T11:39:29;4.55;;;1.48;;
66487;SDS011;53304;54.550;18.526;2023-09-19T11:41:58;3.15;;;1.30;;
66487;SDS011;53304;54.550;18.526;2023-09-19T11:46:55;2.50;;;1.30;;
66487;SDS011;53304;54.550;18.526;2023-09-19T11:49:32;2.78;;;1.30;;
66487;SDS011;53304;54.550;18.526;2023-09-19T11:52:02;4.15;;;1.38;;
66487;SDS011;53304;54.550;18.526;2023-09-19T11:54:36;1.98;;;1.05;;
66487;SDS011;53304;54.550;18.526;2023-09-19T11:57:05;1.75;;;1.20;;
66487;SDS011;53304;54.550;18.526;2023-09-19T11:59:31;2.40;;;1.25;;
66487;SDS011;53304;54.550;18.526;2023-09-19T12:02:01;3.28;;;1.50;;
66487;SDS011;53304;54.550;18.526;2023-09-19T12:04:36;2.15;;;1.10;;
66487;SDS011;53304;54.550;18.526;2023-09-19T12:07:03;3.47;;;1.10;;
66487;SDS011;53304;54.550;18.526;2023-09-19T12:09:29;5.03;;;1.23;;
66487;SDS011;53304;54.550;18.526;2023-09-19T12:11:57;2.70;;;1.20;;
66487;SDS011;53304;54.550;18.526;2023-09-19T12:14:25;3.47;;;1.17;;
66487;SDS011;53304;54.550;18.526;2023-09-19T12:16:54;4.35;;;1.38;;
66487;SDS011;53304;54.550;18.526;2023-09-19T12:19:23;4.28;;;1.23;;
66487;SDS011;53304;54.550;18.526;2023-09-19T12:22:00;1.80;;;1.00;;
66487;SDS011;53304;54.550;18.526;2023-09-19T12:24:30;3.28;;;1.23;;
66487;SDS011;53304;54.550;18.526;2023-09-19T12:27:03;2.85;;;1.00;;
66487;SDS011;53304;54.550;18.526;2023-09-19T12:29:31;2.28;;;1.08;;
66487;SDS011;53304;54.550;18.526;2023-09-19T12:31:59;3.22;;;1.10;;
66487;SDS011;53304;54.550;18.526;2023-09-19T12:34:32;2.40;;;0.98;;
66487;SDS011;53304;54.550;18.526;2023-09-19T12:39:51;1.45;;;1.00;;
66487;SDS011;53304;54.550;18.526;2023-09-19T12:42:24;2.25;;;1.00;;
66487;SDS011;53304;54.550;18.526;2023-09-19T12:44:54;5.28;;;2.00;;
66487;SDS011;53304;54.550;18.526;2023-09-19T12:47:25;4.35;;;1.75;;
66487;SDS011;53304;54.550;18.526;2023-09-19T12:50:11;3.72;;;1.92;;
66487;SDS011;53304;54.550;18.526;2023-09-19T12:55:16;3.40;;;1.63;;
66487;SDS011;53304;54.550;18.526;2023-09-19T12:57:55;4.82;;;2.22;;
66487;SDS011;53304;54.550;18.526;2023-09-19T13:00:39;5.63;;;1.77;;
66487;SDS011;53304;54.550;18.526;2023-09-19T13:03:24;5.28;;;2.25;;
66487;SDS011;53304;54.550;18.526;2023-09-19T13:05:50;3.63;;;1.80;;
66487;SDS011;53304;54.550;18.526;2023-09-19T13:08:24;4.07;;;1.95;;
66487;SDS011;53304;54.550;18.526;2023-09-19T13:16:19;3.28;;;1.85;;
66487;SDS011;53304;54.550;18.526;2023-09-19T13:18:50;4.43;;;1.98;;
66487;SDS011;53304;54.550;18.526;2023-09-19T13:21:34;4.68;;;1.80;;
66487;SDS011;53304;54.550;18.526;2023-09-19T13:24:18;2.97;;;1.58;;
66487;SDS011;53304;54.550;18.526;2023-09-19T13:26:44;3.70;;;1.80;;
66487;SDS011;53304;54.550;18.526;2023-09-19T13:29:10;3.90;;;1.65;;
66487;SDS011;53304;54.550;18.526;2023-09-19T13:31:36;3.95;;;2.00;;
66487;SDS011;53304;54.550;18.526;2023-09-19T13:34:06;2.55;;;1.40;;
66487;SDS011;53304;54.550;18.526;2023-09-19T13:36:37;2.88;;;1.42;;
66487;SDS011;53304;54.550;18.526;2023-09-19T13:39:07;4.22;;;1.52;;
66487;SDS011;53304;54.550;18.526;2023-09-19T13:41:36;3.55;;;1.50;;
66487;SDS011;53304;54.550;18.526;2023-09-19T13:44:04;2.88;;;1.38;;
66487;SDS011;53304;54.550;18.526;2023-09-19T13:46:30;2.95;;;1.52;;
66487;SDS011;53304;54.550;18.526;2023-09-19T13:48:58;6.82;;;2.30;;
66487;SDS011;53304;54.550;18.526;2023-09-19T13:51:25;4.45;;;1.92;;
66487;SDS011;53304;54.550;18.526;2023-09-19T13:53:51;4.80;;;1.70;;
66487;SDS011;53304;54.550;18.526;2023-09-19T13:56:19;3.47;;;1.50;;
66487;SDS011;53304;54.550;18.526;2023-09-19T13:58:45;3.90;;;1.40;;
66487;SDS011;53304;54.550;18.526;2023-09-19T14:01:12;3.05;;;1.40;;
66487;SDS011;53304;54.550;18.526;2023-09-19T14:03:41;3.50;;;1.55;;
66487;SDS011;53304;54.550;18.526;2023-09-19T14:06:13;2.67;;;1.50;;
66487;SDS011;53304;54.550;18.526;2023-09-19T14:08:44;4.03;;;1.40;;
66487;SDS011;53304;54.550;18.526;2023-09-19T14:11:12;2.08;;;1.25;;
66487;SDS011;53304;54.550;18.526;2023-09-19T14:13:41;3.80;;;1.30;;
66487;SDS011;53304;54.550;18.526;2023-09-19T14:16:09;2.40;;;1.20;;
66487;SDS011;53304;54.550;18.526;2023-09-19T14:18:34;3.63;;;1.58;;
66487;SDS011;53304;54.550;18.526;2023-09-19T14:21:06;4.65;;;1.30;;
66487;SDS011;53304;54.550;18.526;2023-09-19T14:23:36;2.75;;;1.15;;
66487;SDS011;53304;54.550;18.526;2023-09-19T14:26:05;3.65;;;1.35;;
66487;SDS011;53304;54.550;18.526;2023-09-19T14:28:31;2.67;;;1.45;;
66487;SDS011;53304;54.550;18.526;2023-09-19T14:31:03;3.90;;;1.70;;
66487;SDS011;53304;54.550;18.526;2023-09-19T14:33:30;3.40;;;1.23;;
66487;SDS011;53304;54.550;18.526;2023-09-19T14:35:56;4.00;;;1.38;;
66487;SDS011;53304;54.550;18.526;2023-09-19T14:38:28;3.33;;;1.45;;
66487;SDS011;53304;54.550;18.526;2023-09-19T14:40:59;2.85;;;1.10;;
66487;SDS011;53304;54.550;18.526;2023-09-19T14:43:26;1.98;;;1.30;;
66487;SDS011;53304;54.550;18.526;2023-09-19T14:45:54;2.92;;;1.33;;
66487;SDS011;53304;54.550;18.526;2023-09-19T14:48:25;3.42;;;1.40;;
66487;SDS011;53304;54.550;18.526;2023-09-19T14:50:52;2.17;;;1.25;;
66487;SDS011;53304;54.550;18.526;2023-09-19T14:53:20;2.10;;;1.10;;
66487;SDS011;53304;54.550;18.526;2023-09-19T14:55:50;2.10;;;1.33;;
66487;SDS011;53304;54.550;18.526;2023-09-19T14:58:17;3.88;;;1.20;;
66487;SDS011;53304;54.550;18.526;2023-09-19T15:00:45;2.47;;;1.30;;
66487;SDS011;53304;54.550;18.526;2023-09-19T15:03:13;3.33;;;1.40;;
66487;SDS011;53304;54.550;18.526;2023-09-19T15:05:41;2.53;;;1.52;;
66487;SDS011;53304;54.550;18.526;2023-09-19T15:08:06;3.63;;;1.38;;
66487;SDS011;53304;54.550;18.526;2023-09-19T15:10:31;3.33;;;1.25;;
66487;SDS011;53304;54.550;18.526;2023-09-19T15:12:57;3.50;;;1.50;;
66487;SDS011;53304;54.550;18.526;2023-09-19T15:15:25;3.10;;;1.10;;
66487;SDS011;53304;54.550;18.526;2023-09-19T15:17:50;2.25;;;1.27;;
66487;SDS011;53304;54.550;18.526;2023-09-19T15:20:16;3.22;;;1.30;;
66487;SDS011;53304;54.550;18.526;2023-09-19T15:22:43;3.97;;;1.30;;
66487;SDS011;53304;54.550;18.526;2023-09-19T15:25:09;2.97;;;1.25;;
66487;SDS011;53304;54.550;18.526;2023-09-19T15:27:37;2.75;;;1.55;;
66487;SDS011;53304;54.550;18.526;2023-09-19T15:30:02;2.70;;;1.10;;
66487;SDS011;53304;54.550;18.526;2023-09-19T15:32:37;2.80;;;1.38;;
66487;SDS011;53304;54.550;18.526;2023-09-19T15:35:08;4.28;;;1.30;;
66487;SDS011;53304;54.550;18.526;2023-09-19T15:37:38;2.88;;;1.38;;
66487;SDS011;53304;54.550;18.526;2023-09-19T15:40:06;4.30;;;1.35;;
66487;SDS011;53304;54.550;18.526;2023-09-19T15:42:38;3.42;;;1.38;;
66487;SDS011;53304;54.550;18.526;2023-09-19T15:45:03;2.72;;;1.15;;
66487;SDS011;53304;54.550;18.526;2023-09-19T15:47:34;4.88;;;1.42;;
66487;SDS011;53304;54.550;18.526;2023-09-19T15:50:02;4.43;;;1.45;;
66487;SDS011;53304;54.550;18.526;2023-09-19T15:52:32;2.05;;;1.10;;
66487;SDS011;53304;54.550;18.526;2023-09-19T15:55:00;3.42;;;1.40;;
66487;SDS011;53304;54.550;18.526;2023-09-19T15:57:28;2.63;;;1.17;;
66487;SDS011;53304;54.550;18.526;2023-09-19T15:59:53;4.25;;;1.20;;
66487;SDS011;53304;54.550;18.526;2023-09-19T16:02:22;3.92;;;1.48;;
66487;SDS011;53304;54.550;18.526;2023-09-19T16:04:47;4.65;;;1.27;;
66487;SDS011;53304;54.550;18.526;2023-09-19T16:07:15;5.03;;;1.00;;
66487;SDS011;53304;54.550;18.526;2023-09-19T16:09:43;3.13;;;1.38;;
66487;SDS011;53304;54.550;18.526;2023-09-19T16:12:09;4.53;;;1.10;;